Time;durP1;ratioP1;P1;durP2;ratioP2;P2;SDS_P1;SDS_P2;PMS_P1;PMS_P2;Temp;Humidity;BMP_temperature;BMP_pressure;BME280_temperature;BME280_humidity;BME280_pressure;Samples;Min_cycle;Max_cycle;Signal;HPM_P1;HPM_P2
2022/10/01 00:01:27;;;;;;;35.20;26.50;;;9.70;99.90;;;;;;6224577;23;20177;-84
2022/10/01 00:13:24;;;;;;;44.67;28.85;;;9.60;99.90;;;;;;6146929;23;20206;-90
2022/10/01 00:15:59;;;;;;;39.00;28.52;;;9.50;99.90;;;;;;6234244;23;20189;-88
2022/10/01 00:18:45;;;;;;;37.08;29.17;;;9.30;99.90;;;;;;6226338;23;20182;-88
2022/10/01 00:39:22;;;;;;;43.05;29.83;;;9.00;99.90;;;;;;6250231;22;20209;-89
2022/10/01 00:45:08;;;;;;;43.92;31.10;;;8.90;99.90;;;;;;6185213;23;20458;-87
2022/10/01 00:58:43;;;;;;;56.65;32.00;;;8.90;99.90;;;;;;6155588;23;20210;-89
2022/10/01 01:01:43;;;;;;;57.42;35.75;;;9.00;99.90;;;;;;6223640;23;20222;-88
2022/10/01 01:05:13;;;;;;;51.47;33.55;;;9.00;99.90;;;;;;6032230;23;20250;-87
2022/10/01 01:08:41;;;;;;;57.67;34.03;;;9.10;99.90;;;;;;6016673;23;20559;-88
2022/10/01 01:30:33;;;;;;;54.75;34.15;;;8.80;99.90;;;;;;5937651;24;20243;-84
2022/10/01 01:33:42;;;;;;;59.35;35.55;;;8.90;99.90;;;;;;5850012;24;20620;-88
2022/10/01 01:40:23;;;;;;;56.50;36.35;;;8.90;99.90;;;;;;5877578;24;20668;-88
2022/10/01 01:43:25;;;;;;;51.33;34.15;;;8.90;99.90;;;;;;5878133;24;20292;-90
2022/10/01 01:46:57;;;;;;;47.58;33.30;;;8.90;99.90;;;;;;5935265;23;20256;-89
2022/10/01 01:54:11;;;;;;;54.92;35.40;;;8.90;99.90;;;;;;6257226;23;20629;-89
2022/10/01 01:57:26;;;;;;;50.22;34.47;;;9.00;99.90;;;;;;6235989;23;20183;-89
2022/10/01 02:00:35;;;;;;;52.92;35.50;;;9.10;99.90;;;;;;6251997;23;20176;-86
2022/10/01 02:03:33;;;;;;;67.15;37.63;;;9.00;99.90;;;;;;6222149;23;20188;-83
2022/10/01 02:07:14;;;;;;;47.20;31.40;;;9.00;99.90;;;;;;6100107;23;20243;-87
2022/10/01 02:10:26;;;;;;;56.75;36.30;;;8.90;99.90;;;;;;6083111;23;20226;-90
2022/10/01 02:13:51;;;;;;;49.33;34.90;;;8.80;99.90;;;;;;6071824;23;20172;-88
2022/10/01 02:17:50;;;;;;;;;;;;;;;;;;;;;
2022/10/01 02:21:29;;;;;;;62.15;34.90;;;8.90;99.90;;;;;;5987131;24;20192;-87
2022/10/01 02:24:26;;;;;;;58.63;37.47;;;8.90;99.90;;;;;;6007024;23;20178;-88
2022/10/01 02:26:57;;;;;;;63.05;37.70;;;8.70;99.90;;;;;;6026460;23;20200;-87
2022/10/01 02:29:25;;;;;;;65.20;37.50;;;8.60;99.90;;;;;;6029295;23;20166;-88
2022/10/01 02:31:54;;;;;;;67.60;37.65;;;8.60;99.90;;;;;;6031582;23;20201;-87
2022/10/01 02:34:25;;;;;;;61.97;36.85;;;8.50;99.90;;;;;;6024103;23;20181;-85
2022/10/01 02:36:55;;;;;;;60.08;37.58;;;8.50;99.90;;;;;;6094172;23;20205;-87
2022/10/01 02:39:26;;;;;;;55.15;38.33;;;8.40;99.90;;;;;;6168624;23;20173;-87
2022/10/01 02:41:56;;;;;;;64.47;39.95;;;8.50;99.90;;;;;;6165357;23;20178;-83
2022/10/01 02:44:39;;;;;;;71.85;42.15;;;8.50;99.90;;;;;;6162660;23;20191;-84
2022/10/01 02:47:17;;;;;;;66.03;40.00;;;8.40;99.90;;;;;;6186618;23;20180;-86
2022/10/01 02:49:45;;;;;;;67.60;42.95;;;8.40;99.90;;;;;;6251304;23;20195;-85
2022/10/01 02:52:16;;;;;;;68.47;41.30;;;8.40;99.90;;;;;;6253121;23;20168;-86
2022/10/01 02:54:55;;;;;;;71.38;42.45;;;8.40;99.90;;;;;;6253358;23;20161;-87
2022/10/01 02:57:26;;;;;;;66.80;38.95;;;8.40;99.90;;;;;;6226214;23;20382;-85
2022/10/01 03:00:02;;;;;;;65.25;40.60;;;8.40;99.90;;;;;;6253511;23;20541;-86
2022/10/01 03:02:31;;;;;;;73.60;42.40;;;8.40;99.90;;;;;;6254503;23;20184;-85
2022/10/01 03:04:59;;;;;;;71.35;40.28;;;8.40;99.90;;;;;;6254086;23;20179;-86
2022/10/01 03:07:35;;;;;;;69.90;38.85;;;8.50;99.90;;;;;;6254252;23;20187;-86
2022/10/01 03:10:03;;;;;;;61.03;38.58;;;8.30;99.90;;;;;;6234113;22;20168;-88
2022/10/01 03:12:30;;;;;;;62.33;36.67;;;8.40;99.90;;;;;;6263532;22;20235;-88
2022/10/01 03:14:59;;;;;;;71.40;42.40;;;8.40;99.90;;;;;;6259364;22;20175;-89
2022/10/01 03:17:28;;;;;;;72.95;42.20;;;8.40;99.90;;;;;;6227741;23;20161;-88
2022/10/01 03:19:57;;;;;;;67.55;38.25;;;8.30;99.90;;;;;;6253064;23;20235;-87
2022/10/01 03:22:24;;;;;;;66.68;38.97;;;8.30;99.90;;;;;;6253883;23;20375;-89
2022/10/01 03:24:52;;;;;;;62.15;34.15;;;8.30;99.90;;;;;;6256216;23;20182;-90
2022/10/01 03:27:22;;;;;;;58.88;36.13;;;8.40;99.90;;;;;;6270196;22;20163;-89
2022/10/01 03:29:49;;;;;;;58.17;37.72;;;8.50;99.90;;;;;;6273494;22;20183;-89
2022/10/01 03:32:17;;;;;;;56.25;35.20;;;8.50;99.90;;;;;;6246807;22;20159;-90
2022/10/01 03:34:45;;;;;;;56.55;38.78;;;8.40;99.90;;;;;;6268076;22;20197;-90
2022/10/01 03:37:16;;;;;;;63.95;36.35;;;8.30;99.90;;;;;;6256978;23;20214;-89
2022/10/01 03:39:43;;;;;;;60.15;36.47;;;8.30;99.90;;;;;;6230372;23;20724;-88
2022/10/01 03:42:11;;;;;;;56.70;34.42;;;8.40;99.90;;;;;;6232966;23;20174;-89
2022/10/01 03:44:38;;;;;;;57.63;36.63;;;8.50;99.90;;;;;;6245094;23;20221;-88
2022/10/01 03:47:05;;;;;;;58.75;39.13;;;8.40;99.90;;;;;;6272004;23;20213;-88
2022/10/01 03:52:14;;;;;;;59.53;36.00;;;8.50;99.90;;;;;;6155775;23;20222;-86
2022/10/01 03:54:41;;;;;;;57.20;35.30;;;8.60;99.90;;;;;;6216869;23;20195;-87
2022/10/01 03:57:11;;;;;;;55.05;36.17;;;8.60;99.90;;;;;;6201053;23;20234;-86
2022/10/01 03:59:38;;;;;;;50.05;34.45;;;8.60;99.90;;;;;;6175303;23;20188;-88
2022/10/01 04:02:07;;;;;;;59.95;35.30;;;8.50;99.90;;;;;;6226210;23;20179;-86
2022/10/01 04:04:36;;;;;;;59.33;37.53;;;8.30;99.90;;;;;;6200913;23;20187;-87
2022/10/01 04:07:04;;;;;;;64.78;36.15;;;8.20;99.90;;;;;;6203212;23;20545;-88
2022/10/01 04:09:32;;;;;;;71.55;37.40;;;8.00;99.90;;;;;;6206970;23;20175;-88
2022/10/01 04:12:03;;;;;;;59.58;36.85;;;8.10;99.90;;;;;;6231910;23;20157;-88
2022/10/01 04:14:31;;;;;;;57.95;35.88;;;7.90;99.90;;;;;;6227765;23;20216;-86
2022/10/01 04:16:59;;;;;;;69.45;38.53;;;7.70;99.90;;;;;;6201135;23;20226;-88
2022/10/01 04:19:27;;;;;;;64.13;36.25;;;7.60;99.90;;;;;;6229674;23;20274;-89
2022/10/01 04:21:54;;;;;;;64.03;37.53;;;7.70;99.90;;;;;;6234267;23;20183;-85
2022/10/01 04:24:21;;;;;;;65.28;37.75;;;7.80;99.90;;;;;;6179073;23;20179;-87
2022/10/01 04:26:50;;;;;;;69.18;42.65;;;7.60;99.90;;;;;;6230393;23;20211;-89
2022/10/01 04:29:18;;;;;;;59.88;36.97;;;7.50;99.90;;;;;;6233001;23;20171;-88
2022/10/01 04:31:45;;;;;;;64.68;36.75;;;7.30;99.90;;;;;;6240992;23;20160;-85
2022/10/01 04:34:13;;;;;;;73.88;42.05;;;7.40;99.90;;;;;;6218653;23;20184;-87
2022/10/01 04:36:40;;;;;;;63.70;37.75;;;7.30;99.90;;;;;;6217710;23;20160;-87
2022/10/01 04:39:07;;;;;;;66.00;36.97;;;7.20;99.90;;;;;;6243842;23;20233;-88
2022/10/01 04:41:37;;;;;;;69.18;37.70;;;7.20;99.90;;;;;;6243957;23;20176;-86
2022/10/01 04:44:05;;;;;;;78.68;41.95;;;7.40;99.90;;;;;;6243401;23;20156;-90
2022/10/01 04:46:32;;;;;;;65.97;38.08;;;7.40;99.90;;;;;;6243460;23;20255;-89
2022/10/01 04:49:00;;;;;;;69.43;37.10;;;7.60;99.90;;;;;;6243347;23;20168;-86
2022/10/01 04:51:30;;;;;;;62.58;37.78;;;7.50;99.90;;;;;;6218180;23;20168;-85
2022/10/01 04:53:57;;;;;;;73.43;41.42;;;7.50;99.90;;;;;;6243245;23;20166;-89
2022/10/01 04:56:24;;;;;;;71.38;39.83;;;7.50;99.90;;;;;;6242928;23;20164;-87
2022/10/01 04:58:52;;;;;;;75.35;42.28;;;7.50;99.90;;;;;;6218057;23;20207;-88
2022/10/01 05:01:19;;;;;;;66.40;38.42;;;7.70;99.90;;;;;;6193053;23;20172;-88
2022/10/01 05:03:47;;;;;;;66.32;40.17;;;7.80;99.90;;;;;;6242286;23;20190;-89
2022/10/01 05:06:14;;;;;;;66.35;41.40;;;7.70;99.90;;;;;;6216546;23;20210;-87
2022/10/01 05:08:44;;;;;;;61.47;38.33;;;7.70;99.90;;;;;;6218397;23;20163;-89
2022/10/01 05:11:11;;;;;;;74.55;42.40;;;7.80;99.90;;;;;;6205636;23;20193;-87
2022/10/01 05:13:40;;;;;;;68.28;40.75;;;7.80;99.90;;;;;;6241604;23;20198;-88
2022/10/01 05:16:07;;;;;;;76.75;42.92;;;7.70;99.90;;;;;;6240835;23;20160;-87
2022/10/01 05:18:35;;;;;;;66.55;40.70;;;7.70;99.90;;;;;;6190642;23;20168;-86
2022/10/01 05:21:06;;;;;;;65.95;35.60;;;7.80;99.90;;;;;;6240444;23;20161;-87
2022/10/01 05:23:36;;;;;;;73.13;41.10;;;7.90;99.90;;;;;;6240859;23;20180;-87
2022/10/01 05:26:04;;;;;;;66.20;38.28;;;7.90;99.90;;;;;;6239836;23;20251;-87
2022/10/01 05:28:32;;;;;;;62.80;40.17;;;8.00;99.90;;;;;;6211108;23;20198;-89
2022/10/01 05:31:01;;;;;;;70.85;40.53;;;8.00;99.90;;;;;;6236385;23;20164;-89
2022/10/01 05:33:33;;;;;;;54.40;37.72;;;8.10;99.90;;;;;;6186254;23;20227;-89
2022/10/01 05:36:00;;;;;;;70.38;40.55;;;8.10;99.90;;;;;;6209404;23;20169;-89
2022/10/01 05:38:28;;;;;;;56.10;36.45;;;8.20;99.90;;;;;;6233351;23;20191;-87
2022/10/01 05:40:56;;;;;;;67.80;39.45;;;8.00;99.90;;;;;;6227708;23;20222;-89
2022/10/01 05:43:25;;;;;;;57.03;37.03;;;7.90;99.90;;;;;;6199963;23;20184;-86
2022/10/01 05:45:54;;;;;;;58.60;36.88;;;7.80;99.90;;;;;;6227167;23;20258;-88
2022/10/01 05:48:21;;;;;;;59.95;37.28;;;7.80;99.90;;;;;;6223647;23;20215;-89
2022/10/01 05:50:49;;;;;;;53.55;35.80;;;7.80;99.90;;;;;;6223841;23;20415;-88
2022/10/01 05:53:15;;;;;;;54.00;36.35;;;8.10;99.90;;;;;;6224056;23;20185;-87
2022/10/01 05:55:43;;;;;;;56.38;34.78;;;8.10;99.90;;;;;;6222483;23;20173;-87
2022/10/01 05:58:12;;;;;;;62.33;35.63;;;8.20;99.90;;;;;;6197063;23;20219;-87
2022/10/01 06:00:40;;;;;;;51.35;32.53;;;8.20;99.90;;;;;;6199770;23;20197;-88
2022/10/01 06:03:14;;;;;;;51.42;36.67;;;8.50;99.90;;;;;;6223042;23;20188;-87
2022/10/01 06:05:48;;;;;;;62.40;39.60;;;8.30;99.90;;;;;;6222126;23;20160;-87
2022/10/01 06:08:16;;;;;;;64.55;37.83;;;9.00;99.90;;;;;;6225272;23;20209;-88
2022/10/01 06:10:45;;;;;;;60.20;36.05;;;9.90;99.90;;;;;;6197078;23;20244;-87
2022/10/01 06:13:18;;;;;;;48.75;33.83;;;10.40;99.90;;;;;;6222749;23;20244;-83
2022/10/01 06:15:46;;;;;;;43.70;29.83;;;10.70;99.90;;;;;;6224625;23;20162;-84
2022/10/01 06:18:13;;;;;;;34.90;24.98;;;10.70;99.90;;;;;;6222707;23;20183;-85
2022/10/01 06:20:40;;;;;;;24.35;20.27;;;10.10;99.90;;;;;;6223238;23;20183;-86
2022/10/01 06:23:11;;;;;;;20.33;16.95;;;10.40;99.90;;;;;;6223819;23;20241;-87
2022/10/01 06:25:40;;;;;;;22.13;17.65;;;10.10;99.90;;;;;;6198072;23;20214;-84
2022/10/01 06:28:10;;;;;;;27.17;17.10;;;10.00;99.90;;;;;;6199001;23;20207;-86
2022/10/01 06:30:41;;;;;;;20.10;15.40;;;10.30;99.90;;;;;;6198419;23;20170;-85
2022/10/01 06:33:21;;;;;;;18.73;14.38;;;10.30;99.90;;;;;;6203388;23;20222;-85
2022/10/01 06:35:51;;;;;;;18.75;14.57;;;9.90;99.90;;;;;;6205098;23;20198;-85
2022/10/01 06:38:24;;;;;;;21.00;14.50;;;9.80;99.90;;;;;;6233165;23;20170;-86
2022/10/01 06:40:56;;;;;;;19.85;13.80;;;9.80;99.90;;;;;;6192020;23;20185;-84
2022/10/01 06:43:25;;;;;;;16.75;13.77;;;9.70;99.90;;;;;;6204982;23;20182;-87
2022/10/01 06:45:54;;;;;;;18.77;16.70;;;9.80;99.90;;;;;;6225865;23;20258;-86
2022/10/01 06:48:22;;;;;;;17.83;14.55;;;10.30;99.90;;;;;;6198700;23;20700;-88
2022/10/01 06:50:51;;;;;;;20.38;14.20;;;10.80;99.90;;;;;;6200590;23;20188;-89
2022/10/01 06:53:20;;;;;;;12.63;11.43;;;11.60;99.90;;;;;;6196477;23;20487;-88
2022/10/01 06:55:48;;;;;;;17.25;13.68;;;12.50;99.90;;;;;;6223946;23;20184;-89
2022/10/01 06:58:22;;;;;;;16.17;13.88;;;12.50;99.90;;;;;;6224715;23;20167;-90
2022/10/01 07:03:36;;;;;;;16.00;13.60;;;12.20;99.90;;;;;;6168043;23;20203;-87
2022/10/01 07:06:10;;;;;;;20.05;16.27;;;12.10;99.90;;;;;;6141264;23;20199;-88
2022/10/01 07:11:12;;;;;;;15.68;11.85;;;13.00;99.90;;;;;;6138591;23;20259;-87
2022/10/01 07:13:39;;;;;;;13.70;12.10;;;13.10;99.90;;;;;;6172388;23;20263;-86
2022/10/01 07:18:49;;;;;;;17.50;15.35;;;13.20;99.90;;;;;;6220048;22;20509;-88
2022/10/01 07:21:17;;;;;;;14.77;12.38;;;13.90;99.90;;;;;;6159423;22;20226;-85
2022/10/01 07:28:50;;;;;;;16.50;11.77;;;18.10;99.90;;;;;;6165918;22;20440;-87
2022/10/01 07:33:57;;;;;;;13.27;11.10;;;19.90;99.90;;;;;;6199389;23;20467;-87
2022/10/01 07:36:24;;;;;;;15.07;12.47;;;20.40;99.90;;;;;;6239462;23;20393;-85
2022/10/01 07:38:51;;;;;;;12.83;11.53;;;21.20;99.90;;;;;;6254150;22;20499;-86
2022/10/01 07:41:20;;;;;;;13.73;11.37;;;21.70;99.90;;;;;;6270708;22;20398;-90
2022/10/01 07:43:48;;;;;;;13.67;10.73;;;21.00;99.90;;;;;;6262015;22;20430;-88
2022/10/01 07:46:16;;;;;;;12.00;10.70;;;19.70;99.90;;;;;;6258994;23;20461;-87
2022/10/01 07:48:51;;;;;;;11.90;10.80;;;20.60;99.90;;;;;;6256906;23;20357;-87
2022/10/01 07:51:18;;;;;;;13.20;11.90;;;20.90;99.90;;;;;;6234265;23;20378;-88
2022/10/01 07:53:49;;;;;;;13.40;12.00;;;21.90;99.90;;;;;;6261116;22;20390;-87
2022/10/01 07:56:17;;;;;;;12.40;11.10;;;23.00;99.90;;;;;;6259063;23;20420;-87
2022/10/01 07:58:53;;;;;;;13.53;11.63;;;22.80;99.90;;;;;;6218755;22;20370;31
2022/10/01 08:01:21;;;;;;;13.97;12.67;;;23.70;99.90;;;;;;6156900;23;20457;-86
2022/10/01 08:03:48;;;;;;;12.67;11.37;;;24.30;99.90;;;;;;6148414;23;20451;-87
2022/10/01 08:06:21;;;;;;;15.10;13.60;;;24.90;99.90;;;;;;6199849;23;20420;-89
2022/10/01 08:08:54;;;;;;;15.07;13.10;;;24.80;99.90;;;;;;6215613;22;20417;-86
2022/10/01 08:11:20;;;;;;;13.93;12.53;;;25.20;99.90;;;;;;6273518;23;20374;-82
2022/10/01 08:13:48;;;;;;;12.70;11.37;;;25.30;99.90;;;;;;6247114;22;20379;-85
2022/10/01 08:16:14;;;;;;;13.40;12.00;;;24.30;99.90;;;;;;6216519;23;20426;-81
2022/10/01 08:18:42;;;;;;;13.63;12.23;;;24.20;99.90;;;;;;6235999;23;20402;-88
2022/10/01 08:21:09;;;;;;;13.63;12.27;;;24.10;99.90;;;;;;6242717;22;20430;-86
2022/10/01 08:23:36;;;;;;;17.10;15.30;;;24.10;99.90;;;;;;6258066;23;20748;-85
2022/10/01 08:26:06;;;;;;;12.73;11.63;;;24.30;99.90;;;;;;6254965;23;20379;-87
2022/10/01 08:28:34;;;;;;;12.07;10.93;;;24.90;99.90;;;;;;6255741;23;20396;-85
2022/10/01 08:31:06;;;;;;;14.63;13.00;;;24.20;99.90;;;;;;6255550;23;20388;-84
2022/10/01 08:33:35;;;;;;;19.80;14.33;;;22.20;99.90;;;;;;6255499;23;20367;-84
2022/10/01 08:36:10;;;;;;;12.80;11.47;;;21.60;99.90;;;;;;6228775;23;20363;-85
2022/10/01 08:38:39;;;;;;;13.83;12.33;;;21.60;99.90;;;;;;6228190;23;20367;-87
2022/10/01 08:41:48;;;;;;;14.13;12.70;;;22.50;99.90;;;;;;6252427;23;20411;-85
2022/10/01 08:44:26;;;;;;;13.37;11.73;;;23.40;99.90;;;;;;6256482;23;20379;-85
2022/10/01 08:47:02;;;;;;;12.23;10.63;;;24.20;99.90;;;;;;6231071;23;20452;-86
2022/10/01 08:49:37;;;;;;;12.90;11.37;;;24.00;99.90;;;;;;6256390;23;20360;-86
2022/10/01 08:52:29;;;;;;;12.70;11.40;;;23.50;99.90;;;;;;6234121;23;20398;-86
2022/10/01 08:55:02;;;;;;;11.57;10.37;;;24.50;99.90;;;;;;6256464;23;20386;-85
2022/10/01 08:57:43;;;;;;;13.43;11.37;;;24.00;99.90;;;;;;6231439;23;20415;-86
2022/10/01 09:00:15;;;;;;;10.97;9.87;;;23.40;99.90;;;;;;6254477;23;20371;-86
2022/10/01 09:02:45;;;;;;;10.97;9.97;;;22.40;99.90;;;;;;6255483;23;20421;-86
2022/10/01 09:05:56;;;;;;;12.13;10.63;;;21.30;99.90;;;;;;6256992;23;20396;-84
2022/10/01 09:08:52;;;;;;;12.33;11.00;;;20.10;99.90;;;;;;6256876;23;20412;-88
2022/10/01 09:12:06;;;;;;;10.50;9.50;;;19.90;99.90;;;;;;6254698;23;20652;-85
2022/10/01 09:15:05;;;;;;;13.47;9.47;;;20.00;99.90;;;;;;6254373;23;20387;-83
2022/10/01 09:18:03;;;;;;;12.17;9.53;;;19.50;99.90;;;;;;6233623;23;20412;-86
2022/10/01 09:20:46;;;;;;;9.80;8.87;;;19.50;99.90;;;;;;6233463;23;20396;-88
2022/10/01 09:23:44;;;;;;;9.37;8.40;;;19.60;99.90;;;;;;6270611;22;20451;-86
2022/10/01 09:26:17;;;;;;;10.60;7.93;;;19.60;99.90;;;;;;6273184;22;20377;-86
2022/10/01 09:28:54;;;;;;;7.77;7.07;;;19.70;99.90;;;;;;6264546;22;20443;-86
2022/10/01 09:31:48;;;;;;;10.87;8.77;;;19.60;99.90;;;;;;6231188;23;20435;-85
2022/10/01 09:34:23;;;;;;;12.60;8.87;;;19.60;99.90;;;;;;6252908;23;20400;-84
2022/10/01 09:37:05;;;;;;;10.53;8.70;;;19.80;99.90;;;;;;6257197;23;20422;-86
2022/10/01 09:39:50;;;;;;;7.43;6.63;;;19.70;99.90;;;;;;6250294;23;20439;-86
2022/10/01 09:42:21;;;;;;;8.60;7.37;;;19.10;99.90;;;;;;6255182;23;20376;-83
2022/10/01 09:44:53;;;;;;;7.40;6.17;;;18.90;99.90;;;;;;6257436;23;20422;-88
2022/10/01 09:47:29;;;;;;;10.57;7.80;;;18.80;99.90;;;;;;6236433;23;20441;-87
2022/10/01 09:50:05;;;;;;;11.60;7.93;;;18.90;99.90;;;;;;6256785;23;20393;-86
2022/10/01 09:52:45;;;;;;;9.33;6.90;;;18.50;99.90;;;;;;6260468;23;20403;-89
2022/10/01 09:55:37;;;;;;;7.53;6.83;;;18.10;99.90;;;;;;6257986;23;20412;-89
2022/10/01 09:58:26;;;;;;;8.43;7.70;;;18.30;99.90;;;;;;6232947;23;20400;-89
2022/10/01 10:01:17;;;;;;;10.37;6.83;;;18.50;99.90;;;;;;6237199;23;20395;-89
2022/10/01 10:04:02;;;;;;;7.43;6.73;;;18.70;99.90;;;;;;6261719;22;20393;-89
2022/10/01 10:06:30;;;;;;;7.07;6.33;;;18.80;99.90;;;;;;6262312;22;20408;-88
2022/10/01 10:09:00;;;;;;;11.87;7.17;;;18.90;99.90;;;;;;6262899;22;20469;-87
2022/10/01 10:11:31;;;;;;;8.70;6.70;;;19.20;99.90;;;;;;6257830;23;20399;-88
2022/10/01 10:14:03;;;;;;;8.50;7.27;;;19.50;99.90;;;;;;6262904;22;20421;-87
2022/10/01 10:16:47;;;;;;;9.40;7.40;;;19.90;99.90;;;;;;6234956;23;20411;-90
2022/10/01 10:19:29;;;;;;;7.83;6.50;;;19.70;99.90;;;;;;6267699;22;20378;-87
2022/10/01 10:22:09;;;;;;;13.47;7.50;;;19.50;99.90;;;;;;6245964;22;20400;-87
2022/10/01 10:24:42;;;;;;;7.50;6.37;;;19.80;99.90;;;;;;6269657;22;20382;-89
2022/10/01 10:27:25;;;;;;;7.93;6.30;;;20.40;99.90;;;;;;6213601;22;20437;-88
2022/10/01 10:30:12;;;;;;;11.13;7.53;;;20.70;99.90;;;;;;6228507;23;20394;-88
2022/10/01 10:35:25;;;;;;;9.57;7.73;;;20.20;99.90;;;;;;6256082;22;20476;-88
2022/10/01 10:37:54;;;;;;;7.37;6.67;;;20.70;99.90;;;;;;6233516;23;20395;-88
2022/10/01 10:40:27;;;;;;;6.47;5.77;;;20.50;99.90;;;;;;6262018;23;20628;-88
2022/10/01 10:42:58;;;;;;;8.23;7.40;;;20.40;99.90;;;;;;6226912;22;20467;-88
2022/10/01 10:45:37;;;;;;;9.63;6.43;;;20.40;99.90;;;;;;6209654;23;20378;-88
2022/10/01 10:48:10;;;;;;;8.33;6.50;;;20.20;99.90;;;;;;6233128;23;20479;-87
2022/10/01 10:50:45;;;;;;;7.30;5.37;;;20.40;99.90;;;;;;6223732;22;20463;-88
2022/10/01 10:53:20;;;;;;;9.57;5.63;;;20.70;99.90;;;;;;6263171;22;20777;-88
2022/10/01 10:56:01;;;;;;;11.87;6.30;;;20.70;99.90;;;;;;6264963;22;20382;-88
2022/10/01 10:58:39;;;;;;;6.40;5.77;;;21.00;99.90;;;;;;6262045;22;20411;-86
2022/10/01 11:01:12;;;;;;;7.00;6.00;;;21.20;99.90;;;;;;6207215;23;20380;-87
2022/10/01 11:03:59;;;;;;;7.50;5.50;;;21.60;99.90;;;;;;6259042;23;20440;-86
2022/10/01 11:06:27;;;;;;;5.47;4.87;;;21.60;99.90;;;;;;6236397;22;20637;-85
2022/10/01 11:09:16;;;;;;;5.40;4.90;;;21.20;99.90;;;;;;6264118;22;20625;-87
2022/10/01 11:11:58;;;;;;;6.33;5.77;;;21.10;99.90;;;;;;6259914;23;20384;-88
2022/10/01 11:14:55;;;;;;;5.27;4.80;;;21.20;99.90;;;;;;6261185;23;20395;-87
2022/10/01 11:18:02;;;;;;;5.87;5.23;;;20.80;99.90;;;;;;6254168;23;20403;-87
2022/10/01 11:20:59;;;;;;;5.90;5.37;;;20.60;99.90;;;;;;6261554;23;20755;-87
2022/10/01 11:23:50;;;;;;;6.30;4.93;;;20.50;99.90;;;;;;6266314;22;20397;-85
2022/10/01 11:26:42;;;;;;;5.50;4.50;;;20.70;99.90;;;;;;6271917;22;20407;-87
2022/10/01 11:29:32;;;;;;;11.20;5.70;;;20.70;99.90;;;;;;6268231;22;20425;-88
2022/10/01 11:32:28;;;;;;;7.03;3.90;;;20.60;99.90;;;;;;6262459;23;20405;-87
2022/10/01 11:35:10;;;;;;;3.97;2.93;;;20.50;99.90;;;;;;6258319;23;20408;-89
2022/10/01 11:37:59;;;;;;;6.50;2.40;;;20.10;99.90;;;;;;6238775;22;20368;-85
2022/10/01 11:40:53;;;;;;;2.40;2.10;;;20.00;99.90;;;;;;6271988;22;20377;-86
2022/10/01 11:43:41;;;;;;;4.10;2.10;;;19.80;99.90;;;;;;6271865;22;20352;-85
2022/10/01 11:46:38;;;;;;;3.00;2.40;;;19.70;99.90;;;;;;6244450;22;20352;-84
2022/10/01 11:49:40;;;;;;;2.77;1.80;;;19.50;99.90;;;;;;6202321;22;20433;-85
2022/10/01 11:52:16;;;;;;;2.77;2.40;;;19.80;99.90;;;;;;6270386;22;20388;-84
2022/10/01 11:54:56;;;;;;;2.90;2.47;;;19.80;99.90;;;;;;6242587;23;20371;-82
2022/10/01 12:00:34;;;;;;;3.40;2.33;;;20.10;99.90;;;;;;6180014;23;20434;-86
2022/10/01 12:03:16;;;;;;;4.70;2.20;;;20.00;99.90;;;;;;6193290;23;20377;-88
2022/10/01 12:05:46;;;;;;;6.63;3.53;;;20.00;99.90;;;;;;6234209;23;20393;-88
2022/10/01 12:08:30;;;;;;;3.10;2.73;;;20.50;99.90;;;;;;6234763;23;20434;-89
2022/10/01 12:11:15;;;;;;;2.50;2.00;;;20.40;99.90;;;;;;6260844;23;20387;-87
2022/10/01 12:13:58;;;;;;;4.90;2.70;;;20.30;99.90;;;;;;6263733;23;20363;-85
2022/10/01 12:16:44;;;;;;;3.87;2.70;;;20.40;99.90;;;;;;6158520;23;20484;-89
2022/10/01 12:19:17;;;;;;;2.80;2.50;;;19.80;99.90;;;;;;6231334;23;20893;-89
2022/10/01 12:21:58;;;;;;;3.73;3.40;;;19.50;99.90;;;;;;6198979;22;20429;-85
2022/10/01 12:24:29;;;;;;;4.87;2.47;;;19.70;99.90;;;;;;6266319;22;20676;-87
2022/10/01 12:27:34;;;;;;;4.83;2.60;;;19.90;99.90;;;;;;6266563;22;20379;-86
2022/10/01 12:30:09;;;;;;;2.87;2.67;;;20.10;99.90;;;;;;6237767;23;20392;-86
2022/10/01 12:32:41;;;;;;;2.67;2.33;;;20.30;99.90;;;;;;6262851;23;20600;-87
2022/10/01 12:35:34;;;;;;;2.40;2.20;;;20.10;99.90;;;;;;6264753;22;20451;-90
2022/10/01 12:38:24;;;;;;;2.63;2.23;;;19.70;99.90;;;;;;6264285;23;20401;-86
2022/10/01 12:44:33;;;;;;;3.37;3.07;;;19.90;99.90;;;;;;6217724;22;20432;-88
2022/10/01 12:47:37;;;;;;;2.70;2.33;;;20.00;99.90;;;;;;6270388;22;20427;-87
2022/10/01 12:56:07;;;;;;;2.50;1.83;;;19.80;99.90;;;;;;6226950;22;20436;-85
2022/10/01 12:59:08;;;;;;;5.07;3.37;;;20.30;99.90;;;;;;6271769;22;20395;-87
2022/10/01 13:04:39;;;;;;;2.30;2.10;;;19.80;99.90;;;;;;6182385;23;20580;-85
2022/10/01 13:07:17;;;;;;;2.53;2.33;;;19.50;99.90;;;;;;6175745;23;20402;-86
2022/10/01 13:10:00;;;;;;;3.77;2.03;;;19.60;99.90;;;;;;6176334;23;20384;-87
2022/10/01 13:12:42;;;;;;;4.43;2.03;;;19.60;99.90;;;;;;6173869;23;20434;-86
2022/10/01 13:15:30;;;;;;;3.23;2.20;;;19.20;99.90;;;;;;6144829;23;20379;-88
2022/10/01 13:18:31;;;;;;;4.93;2.17;;;19.10;99.90;;;;;;6171479;23;20423;-88
2022/10/01 13:21:32;;;;;;;2.20;2.03;;;18.90;99.90;;;;;;6172378;23;20342;-82
2022/10/01 13:24:17;;;;;;;3.33;1.93;;;19.00;99.90;;;;;;6157936;23;20414;-84
2022/10/01 13:26:56;;;;;;;4.73;2.33;;;19.00;99.90;;;;;;6181356;23;20414;-83
2022/10/01 13:29:42;;;;;;;3.40;2.50;;;19.00;99.90;;;;;;6170921;23;20491;-87
2022/10/01 13:33:05;;;;;;;3.27;2.40;;;19.10;99.90;;;;;;6171277;23;20722;-89
2022/10/01 13:35:38;;;;;;;1.93;1.67;;;19.30;99.90;;;;;;6128180;23;20450;-88
2022/10/01 13:38:38;;;;;;;3.70;2.23;;;19.50;99.90;;;;;;6175894;23;20490;-87
2022/10/01 13:41:16;;;;;;;2.53;2.33;;;19.50;99.90;;;;;;6156610;23;20408;-85
2022/10/01 13:46:19;;;;;;;3.23;2.00;;;19.10;99.90;;;;;;6204633;23;20433;-88
2022/10/01 13:48:49;;;;;;;3.03;2.83;;;19.10;99.90;;;;;;6183629;23;20509;-83
2022/10/01 13:51:19;;;;;;;2.50;2.30;;;19.00;99.90;;;;;;6159983;23;20527;-87
2022/10/01 13:53:52;;;;;;;5.00;2.60;;;19.00;99.90;;;;;;6208779;23;20695;-89
2022/10/01 13:56:35;;;;;;;2.67;2.30;;;18.90;99.90;;;;;;6209013;22;20429;-88
2022/10/01 13:59:32;;;;;;;5.27;2.60;;;18.70;99.90;;;;;;6263391;23;20377;-89
2022/10/01 14:01:59;;;;;;;3.90;2.60;;;18.10;99.90;;;;;;6194003;22;20422;-84
2022/10/01 14:04:42;;;;;;;5.53;2.20;;;18.00;99.90;;;;;;6131783;22;21782;-87
2022/10/01 14:07:32;;;;;;;8.30;2.63;;;17.90;99.90;;;;;;6204889;23;20456;-86
2022/10/01 14:26:19;;;;;;;4.90;3.80;;;17.60;99.90;;;;;;6124092;23;20440;-90
2022/10/01 14:29:38;;;;;;;4.00;2.77;;;17.50;99.90;;;;;;6231946;23;20435;-88
2022/10/01 14:32:49;;;;;;;5.13;2.60;;;17.40;99.90;;;;;;6152854;23;20409;-87
2022/10/01 14:35:39;;;;;;;3.70;2.57;;;17.10;99.90;;;;;;6172279;23;20396;-88
2022/10/01 14:38:14;;;;;;;2.70;2.50;;;16.80;99.90;;;;;;6229267;23;20397;-86
2022/10/01 14:40:47;;;;;;;2.37;2.17;;;16.70;99.90;;;;;;6226067;22;20415;-86
2022/10/01 14:48:56;;;;;;;3.67;3.03;;;16.60;99.90;;;;;;6220154;23;20446;-89
2022/10/01 14:59:34;;;;;;;3.70;3.40;;;16.00;99.90;;;;;;6219797;22;20447;-84
2022/10/01 15:02:15;;;;;;;7.77;3.50;;;15.10;99.90;;;;;;6236619;23;20425;-84
2022/10/01 15:04:49;;;;;;;8.43;4.57;;;14.40;99.90;;;;;;6232806;23;20614;-85
2022/10/01 15:07:17;;;;;;;3.70;3.17;;;13.90;99.90;;;;;;6212805;22;20391;-87
2022/10/01 15:10:20;;;;;;;6.13;3.80;;;13.50;99.90;;;;;;6245399;23;20453;-86
2022/10/01 15:12:50;;;;;;;3.58;3.28;;;13.70;99.90;;;;;;6271763;22;20235;-86
2022/10/01 15:15:42;;;;;;;2.67;2.47;;;13.50;99.90;;;;;;6259468;23;20221;-86
2022/10/01 15:18:18;;;;;;;2.13;1.92;;;13.50;99.90;;;;;;6230963;23;20180;-85
2022/10/01 15:21:07;;;;;;;2.63;2.40;;;13.60;99.90;;;;;;6229784;23;20171;-89
2022/10/01 15:23:43;;;;;;;5.15;4.20;;;13.60;99.90;;;;;;6258301;23;20188;-88
2022/10/01 15:26:17;;;;;;;2.17;1.98;;;13.70;99.90;;;;;;6260309;23;20185;-89
2022/10/01 15:29:07;;;;;;;3.13;2.92;;;13.70;99.90;;;;;;6232012;23;20191;-87
2022/10/01 15:31:41;;;;;;;3.80;3.30;;;13.80;99.90;;;;;;6231964;23;20210;-89
2022/10/01 15:34:15;;;;;;;3.15;2.40;;;13.80;99.90;;;;;;6233791;23;20164;-89
2022/10/01 15:36:53;;;;;;;4.30;3.90;;;13.70;99.90;;;;;;6210159;23;20193;-88
2022/10/01 15:39:37;;;;;;;3.72;3.00;;;13.70;99.90;;;;;;6234479;23;20254;-89
2022/10/01 15:42:25;;;;;;;11.27;3.97;;;13.70;99.90;;;;;;6234948;23;20175;-88
2022/10/01 15:45:06;;;;;;;3.67;3.33;;;13.70;99.90;;;;;;6239789;22;20236;-87
2022/10/01 15:47:38;;;;;;;3.20;2.90;;;13.50;99.90;;;;;;6205988;23;20197;-88
2022/10/01 15:50:17;;;;;;;4.70;3.45;;;13.50;99.90;;;;;;6206476;23;20193;-87
2022/10/01 15:52:48;;;;;;;3.65;3.35;;;13.30;99.90;;;;;;6232919;23;20310;-84
2022/10/01 15:55:42;;;;;;;4.43;2.63;;;13.10;99.90;;;;;;6233684;23;20175;-90